Aviation meteorology

METAR


Last update: 18 Sep 2020 12:50:00
639
SAHU41 HASM 181300
METAR LHSM 181245Z AUTO 01006KT 320V080 9999 FEW044 19/09 Q1025 NOSIG

TAF


Last update: 18 Sep 2020 11:05:00
635
FCHU99 LHSM 181100
TAF LHSM 181115Z 1812/1821 03008KT CAVOK BECMG 1817/1820 VRB02KT